createdAt,value
2022-09-11T00:00:42.578Z,5.60
2022-09-11T00:03:09.860Z,5.80
2022-09-11T00:05:39.287Z,5.00
2022-09-11T00:08:07.438Z,4.70
2022-09-11T00:10:35.903Z,7.07
2022-09-11T00:13:02.741Z,13.30
2022-09-11T00:15:29.682Z,4.40
2022-09-11T00:17:56.647Z,4.70
2022-09-11T00:20:23.649Z,4.53
2022-09-11T00:22:51.803Z,4.63
2022-09-11T00:25:18.541Z,4.97
2022-09-11T00:27:45.254Z,6.00
2022-09-11T00:30:12.464Z,6.73
2022-09-11T00:32:39.213Z,5.10
2022-09-11T00:35:07.015Z,4.27
2022-09-11T00:37:33.785Z,4.90
2022-09-11T00:40:02.416Z,5.93
2022-09-11T00:42:29.217Z,7.87
2022-09-11T00:45:03.381Z,4.23
2022-09-11T00:47:31.034Z,4.17
2022-09-11T00:50:28.000Z,4.50
2022-09-11T00:52:58.087Z,3.83
2022-09-11T00:55:30.426Z,5.10
2022-09-11T00:58:01.582Z,4.43
2022-09-11T01:00:28.595Z,4.20
2022-09-11T01:02:56.775Z,5.30
2022-09-11T01:05:27.641Z,5.40
2022-09-11T01:07:55.919Z,6.00
2022-09-11T01:10:31.884Z,6.27
2022-09-11T01:13:06.093Z,5.27
2022-09-11T01:15:40.910Z,5.07
2022-09-11T01:18:14.809Z,6.07
2022-09-11T01:21:06.401Z,5.87
2022-09-11T01:23:56.623Z,4.97
2022-09-11T01:26:42.520Z,9.83
2022-09-11T01:29:19.816Z,5.40
2022-09-11T01:31:54.881Z,6.00
2022-09-11T01:34:29.883Z,6.63
2022-09-11T01:37:02.578Z,7.70
2022-09-11T01:39:35.056Z,6.40
2022-09-11T01:42:05.367Z,6.40
2022-09-11T01:44:37.531Z,7.03
2022-09-11T01:47:07.817Z,6.93
2022-09-11T01:49:38.596Z,8.47
2022-09-11T01:52:08.315Z,6.07
2022-09-11T01:54:41.084Z,6.07
2022-09-11T01:57:13.126Z,7.77
2022-09-11T01:59:45.485Z,6.60
2022-09-11T02:02:16.661Z,6.10
2022-09-11T02:04:47.949Z,6.70
2022-09-11T02:07:19.292Z,11.40
2022-09-11T02:09:53.897Z,7.73
2022-09-11T02:12:25.974Z,6.03
2022-09-11T02:14:55.382Z,7.63
2022-09-11T02:17:27.135Z,6.23
2022-09-11T02:19:56.640Z,7.27
2022-09-11T02:22:23.726Z,7.13
2022-09-11T02:24:50.696Z,5.27
2022-09-11T02:27:20.950Z,7.10
2022-09-11T02:29:48.341Z,6.60
2022-09-11T02:32:17.215Z,7.90
2022-09-11T02:34:44.791Z,6.70
2022-09-11T02:37:21.183Z,6.10
2022-09-11T02:40:09.582Z,7.20
2022-09-11T02:42:47.783Z,8.23
2022-09-11T02:45:28.993Z,12.17
2022-09-11T02:48:11.451Z,9.60
2022-09-11T02:50:45.092Z,11.80
2022-09-11T02:53:20.840Z,10.10
2022-09-11T02:56:07.308Z,10.47
2022-09-11T02:58:38.895Z,13.40
2022-09-11T03:01:07.905Z,13.97
2022-09-11T03:03:38.730Z,59.23
2022-09-11T03:06:06.717Z,58.00
2022-09-11T03:08:33.401Z,34.77
2022-09-11T03:11:00.203Z,37.63
2022-09-11T03:13:26.888Z,26.50
2022-09-11T03:15:53.648Z,26.83
2022-09-11T03:18:20.351Z,24.80
2022-09-11T03:20:48.555Z,23.47
2022-09-11T03:23:15.616Z,16.57
2022-09-11T03:25:42.403Z,20.20
2022-09-11T03:28:09.612Z,16.33
2022-09-11T03:30:36.393Z,23.73
2022-09-11T03:33:03.225Z,34.13
2022-09-11T03:35:29.962Z,26.37
2022-09-11T03:37:58.205Z,29.57
2022-09-11T03:40:24.941Z,23.03
2022-09-11T03:42:51.603Z,38.17
2022-09-11T03:45:18.529Z,35.47
2022-09-11T03:47:45.332Z,30.13
2022-09-11T03:50:12.943Z,23.20
2022-09-11T03:52:39.879Z,31.63
2022-09-11T03:55:08.597Z,26.57
2022-09-11T03:57:35.721Z,18.83
2022-09-11T04:00:03.882Z,18.67
2022-09-11T04:02:30.630Z,17.83
2022-09-11T04:04:57.447Z,17.23
2022-09-11T04:07:24.423Z,14.20
2022-09-11T04:09:51.158Z,16.70
2022-09-11T04:12:19.373Z,16.97
2022-09-11T04:14:46.121Z,20.17
2022-09-11T04:17:12.859Z,20.57
2022-09-11T04:19:39.596Z,18.53
2022-09-11T04:22:06.387Z,18.53
2022-09-11T04:24:33.067Z,17.43
2022-09-11T04:27:00.871Z,17.13
2022-09-11T04:29:29.427Z,16.43
2022-09-11T04:31:56.286Z,17.20
2022-09-11T04:34:23.056Z,20.47
2022-09-11T04:36:49.838Z,19.80
2022-09-11T04:39:16.699Z,18.13
2022-09-11T04:41:43.379Z,16.00
2022-09-11T04:44:10.156Z,16.90
2022-09-11T04:46:38.154Z,14.63
2022-09-11T04:49:04.898Z,12.93
2022-09-11T04:51:34.325Z,12.10
2022-09-11T04:54:01.590Z,11.20
2022-09-11T04:56:31.236Z,11.80
2022-09-11T04:59:00.001Z,12.50
2022-09-11T05:01:29.143Z,13.33
2022-09-11T05:03:58.152Z,13.20
2022-09-11T05:06:24.854Z,11.60
2022-09-11T05:08:51.940Z,9.23
2022-09-11T05:11:19.705Z,10.40
2022-09-11T05:13:46.990Z,11.43
2022-09-11T05:16:15.570Z,11.17
2022-09-11T05:18:44.202Z,11.47
2022-09-11T05:21:13.877Z,12.53
2022-09-11T05:23:41.835Z,10.87
2022-09-11T05:26:14.757Z,13.37
2022-09-11T05:28:41.478Z,13.23
2022-09-11T05:31:12.419Z,13.67
2022-09-11T05:33:39.324Z,14.00
2022-09-11T05:36:06.946Z,16.47
2022-09-11T05:38:35.938Z,16.07
2022-09-11T05:41:04.662Z,17.80
2022-09-11T05:43:32.411Z,14.60
2022-09-11T05:45:59.844Z,15.67
2022-09-11T05:48:28.410Z,14.80
2022-09-11T05:50:56.622Z,18.77
2022-09-11T05:53:23.674Z,18.00
2022-09-11T05:55:51.817Z,17.60
2022-09-11T05:58:19.103Z,17.13
2022-09-11T06:00:46.069Z,16.03
2022-09-11T06:03:15.438Z,19.20
2022-09-11T06:05:42.982Z,19.27
2022-09-11T06:08:11.160Z,18.40
2022-09-11T06:10:44.027Z,17.17
2022-09-11T06:13:12.104Z,17.10
2022-09-11T06:15:46.903Z,14.87
2022-09-11T06:18:14.637Z,21.37
2022-09-11T06:20:41.291Z,19.77
2022-09-11T06:23:09.524Z,18.83
2022-09-11T06:25:36.358Z,18.97
2022-09-11T06:28:03.789Z,27.13
2022-09-11T06:30:32.926Z,23.90
2022-09-11T06:32:59.709Z,22.10
2022-09-11T06:35:26.359Z,18.53
2022-09-11T06:37:53.045Z,19.00
2022-09-11T06:40:19.770Z,19.57
2022-09-11T06:42:46.422Z,23.63
2022-09-11T06:45:13.301Z,20.03
2022-09-11T06:47:41.302Z,20.03
2022-09-11T06:50:08.418Z,17.67
2022-09-11T06:52:35.188Z,15.77
2022-09-11T06:55:01.928Z,19.53
2022-09-11T06:57:28.852Z,19.50
2022-09-11T06:59:55.558Z,20.33
2022-09-11T07:02:22.229Z,18.17
2022-09-11T07:04:50.307Z,18.97
2022-09-11T07:07:16.957Z,16.27
2022-09-11T07:09:43.584Z,16.77
2022-09-11T07:12:10.280Z,18.70
2022-09-11T07:14:37.058Z,17.80
2022-09-11T07:17:03.988Z,20.10
2022-09-11T07:19:30.780Z,18.80
2022-09-11T07:21:58.797Z,17.83
2022-09-11T07:24:25.578Z,19.00
2022-09-11T07:26:52.273Z,18.50
2022-09-11T07:29:18.930Z,18.17
2022-09-11T07:31:45.687Z,15.23
2022-09-11T07:34:12.357Z,20.93
2022-09-11T07:36:39.079Z,25.20
2022-09-11T07:39:07.160Z,20.50
2022-09-11T07:41:33.899Z,26.33
2022-09-11T07:44:01.142Z,26.13
2022-09-11T07:46:28.078Z,28.63
2022-09-11T07:48:54.994Z,22.13
2022-09-11T07:51:21.749Z,23.23
2022-09-11T07:53:50.990Z,25.87
2022-09-11T07:56:21.062Z,30.10
2022-09-11T07:58:47.757Z,24.90
2022-09-11T08:01:16.654Z,22.10
2022-09-11T08:03:44.106Z,25.60
2022-09-11T08:06:12.965Z,23.40
2022-09-11T08:08:40.245Z,26.63
2022-09-11T08:11:09.119Z,26.73
2022-09-11T08:13:37.182Z,21.43
2022-09-11T08:16:04.221Z,21.87
2022-09-11T08:18:31.839Z,26.27
2022-09-11T08:21:02.601Z,25.47
2022-09-11T08:23:29.835Z,27.33
2022-09-11T08:25:56.471Z,23.63
2022-09-11T08:28:23.128Z,26.27
2022-09-11T08:30:57.016Z,27.77
2022-09-11T08:33:23.716Z,26.10
2022-09-11T08:35:50.362Z,25.07
2022-09-11T08:38:17.091Z,26.13
2022-09-11T08:40:43.842Z,21.37
2022-09-11T08:43:19.934Z,22.87
2022-09-11T08:45:48.066Z,26.43
2022-09-11T08:48:16.090Z,20.37
2022-09-11T08:50:43.740Z,17.07
2022-09-11T08:53:14.449Z,17.27
2022-09-11T08:55:46.513Z,18.57
2022-09-11T08:58:22.752Z,17.10
2022-09-11T09:00:55.905Z,17.83
2022-09-11T09:03:45.977Z,15.40
2022-09-11T09:06:28.237Z,18.43
2022-09-11T09:09:02.757Z,15.23
2022-09-11T09:11:37.439Z,14.40
2022-09-11T09:14:20.119Z,14.33
2022-09-11T09:16:50.533Z,15.77
2022-09-11T09:19:25.460Z,15.47
2022-09-11T09:22:01.848Z,17.13
2022-09-11T09:24:32.220Z,19.07
2022-09-11T09:26:59.146Z,16.00
2022-09-11T09:29:31.618Z,19.80
2022-09-11T09:32:02.245Z,17.23
2022-09-11T09:34:33.379Z,17.23
2022-09-11T09:37:04.824Z,17.70
2022-09-11T09:39:32.253Z,16.23
2022-09-11T09:42:14.417Z,15.90
2022-09-11T09:44:52.898Z,13.47
2022-09-11T09:47:19.751Z,10.30
2022-09-11T09:49:48.167Z,11.90
2022-09-11T09:52:18.590Z,10.10
2022-09-11T09:54:55.187Z,11.60
2022-09-11T09:57:24.626Z,10.70
2022-09-11T09:59:55.739Z,14.80
2022-09-11T10:02:38.301Z,11.37
2022-09-11T10:05:24.309Z,12.47
2022-09-11T10:07:53.289Z,11.10
2022-09-11T10:10:26.265Z,11.77
2022-09-11T10:13:03.555Z,12.77
2022-09-11T10:15:41.301Z,11.40
2022-09-11T10:18:32.153Z,11.40
2022-09-11T10:21:14.944Z,12.03
2022-09-11T10:23:46.005Z,11.50
2022-09-11T10:26:16.121Z,11.23
2022-09-11T10:28:43.823Z,11.07
2022-09-11T10:31:14.847Z,15.33
2022-09-11T10:33:46.161Z,11.53
2022-09-11T10:36:23.028Z,9.57
2022-09-11T10:38:50.870Z,12.77
2022-09-11T10:41:21.201Z,12.63
2022-09-11T10:43:51.787Z,11.80
2022-09-11T10:46:27.553Z,10.77
2022-09-11T10:48:55.933Z,14.03
2022-09-11T10:51:26.175Z,14.50
2022-09-11T10:54:14.287Z,13.10
2022-09-11T10:56:50.179Z,14.20
2022-09-11T10:59:24.241Z,9.83
2022-09-11T11:01:51.019Z,14.70
2022-09-11T11:04:17.811Z,9.20
2022-09-11T11:06:58.738Z,9.77
2022-09-11T11:09:39.136Z,9.70
2022-09-11T11:12:21.362Z,9.33
2022-09-11T11:15:07.625Z,10.70
2022-09-11T11:17:42.185Z,12.80
2022-09-11T11:20:23.733Z,9.77
2022-09-11T11:23:16.354Z,10.10
2022-09-11T11:25:50.878Z,10.77
2022-09-11T11:28:36.832Z,8.63
2022-09-11T11:31:17.035Z,12.53
2022-09-11T11:34:09.554Z,8.63
2022-09-11T11:36:40.869Z,14.83
2022-09-11T11:39:24.823Z,9.33
2022-09-11T11:42:04.852Z,8.67
2022-09-11T11:44:36.494Z,9.30
2022-09-11T11:47:06.731Z,11.03
2022-09-11T11:49:47.034Z,9.70
2022-09-11T11:52:31.043Z,8.80
2022-09-11T11:55:07.024Z,7.40
2022-09-11T11:57:40.152Z,9.00
2022-09-11T12:00:11.753Z,8.80
2022-09-11T12:02:45.406Z,11.33
2022-09-11T12:05:16.618Z,9.23
2022-09-11T12:07:43.656Z,6.37
2022-09-11T12:10:21.787Z,6.77
2022-09-11T12:12:53.254Z,8.23
2022-09-11T12:15:22.261Z,8.70
2022-09-11T12:17:59.784Z,7.60
2022-09-11T12:20:36.453Z,9.13
2022-09-11T12:23:04.058Z,7.80
2022-09-11T12:26:04.351Z,9.00
2022-09-11T12:28:31.340Z,9.03
2022-09-11T12:31:01.463Z,7.40
2022-09-11T12:33:58.251Z,9.30
2022-09-11T12:36:31.473Z,7.67
2022-09-11T12:39:01.208Z,7.83
2022-09-11T12:41:31.548Z,10.50
2022-09-11T12:43:58.448Z,7.13
2022-09-11T12:47:14.058Z,7.60
2022-09-11T12:49:52.948Z,10.53
2022-09-11T12:52:27.471Z,6.40
2022-09-11T12:54:54.684Z,7.47
2022-09-11T12:57:27.314Z,6.63
2022-09-11T12:59:57.487Z,6.30
2022-09-11T13:02:28.318Z,8.20
2022-09-11T13:04:56.032Z,7.00
2022-09-11T13:07:30.407Z,8.67
2022-09-11T13:10:02.122Z,9.03
2022-09-11T13:12:49.607Z,7.80
2022-09-11T13:15:38.700Z,5.93
2022-09-11T13:18:31.243Z,11.00
2022-09-11T13:21:12.002Z,10.10
2022-09-11T13:23:38.832Z,6.43
2022-09-11T13:26:07.142Z,9.57
2022-09-11T13:28:44.429Z,11.80
2022-09-11T13:31:16.371Z,5.97
2022-09-11T13:33:48.052Z,7.53
2022-09-11T13:36:16.233Z,7.37
2022-09-11T13:38:44.532Z,5.97
2022-09-11T13:41:16.989Z,8.63
2022-09-11T13:43:49.048Z,9.07
2022-09-11T13:46:20.698Z,5.87
2022-09-11T13:48:49.835Z,6.40
2022-09-11T13:51:19.259Z,6.13
2022-09-11T13:54:00.679Z,8.40
2022-09-11T13:56:42.599Z,7.20
2022-09-11T13:59:36.553Z,7.97
2022-09-11T14:02:05.549Z,6.87
2022-09-11T14:04:40.157Z,5.97
2022-09-11T14:07:16.234Z,7.67
2022-09-11T14:09:47.782Z,9.70
2022-09-11T14:12:14.986Z,9.20
2022-09-11T14:14:43.317Z,8.00
2022-09-11T14:17:11.441Z,9.47
2022-09-11T14:19:42.581Z,8.30
2022-09-11T14:22:15.819Z,6.90
2022-09-11T14:24:54.402Z,7.40
2022-09-11T14:27:42.267Z,7.80
2022-09-11T14:30:31.477Z,10.40
2022-09-11T14:33:16.178Z,9.50
2022-09-11T14:35:45.793Z,8.50
2022-09-11T14:38:14.765Z,10.00
2022-09-11T14:40:48.360Z,8.27
2022-09-11T14:43:15.549Z,8.90
2022-09-11T14:45:43.875Z,7.17
2022-09-11T14:48:11.290Z,8.10
2022-09-11T14:50:38.647Z,8.80
2022-09-11T14:53:05.457Z,11.00
2022-09-11T14:55:32.234Z,8.60
2022-09-11T14:57:59.054Z,8.03
2022-09-11T15:00:25.793Z,7.97
2022-09-11T15:02:54.563Z,10.73
2022-09-11T15:05:21.341Z,9.70
2022-09-11T15:07:48.105Z,13.50
2022-09-11T15:10:15.384Z,10.17
2022-09-11T15:12:42.367Z,8.47
2022-09-11T15:15:09.957Z,7.83
2022-09-11T15:17:36.838Z,5.70
2022-09-11T15:20:06.551Z,7.23
2022-09-11T15:22:33.364Z,7.87
2022-09-11T15:25:00.135Z,6.03
2022-09-11T15:27:26.950Z,6.00
2022-09-11T15:29:54.586Z,7.30
2022-09-11T15:32:21.395Z,8.07
2022-09-11T15:34:48.249Z,9.10
2022-09-11T15:37:16.317Z,7.70
2022-09-11T15:39:43.139Z,6.43
2022-09-11T15:42:09.963Z,6.80
2022-09-11T15:44:37.344Z,7.20
2022-09-11T15:47:04.330Z,5.00
2022-09-11T15:49:31.121Z,4.53
2022-09-11T15:51:58.888Z,6.07
2022-09-11T15:54:27.483Z,5.30
2022-09-11T15:56:54.615Z,6.53
2022-09-11T15:59:21.659Z,5.00
2022-09-11T16:01:48.523Z,5.07
2022-09-11T16:04:17.616Z,9.87
2022-09-11T16:06:45.958Z,5.40
2022-09-11T16:09:14.616Z,6.50
2022-09-11T16:11:43.105Z,5.17
2022-09-11T16:14:16.438Z,6.90
2022-09-11T16:16:43.159Z,5.60
2022-09-11T16:19:09.837Z,5.53
2022-09-11T16:21:36.556Z,6.00
2022-09-11T16:24:03.285Z,5.10
2022-09-11T16:26:29.950Z,4.63
2022-09-11T16:28:58.385Z,5.77
2022-09-11T16:31:25.341Z,5.47
2022-09-11T16:33:52.184Z,7.03
2022-09-11T16:36:20.676Z,4.47
2022-09-11T16:38:48.245Z,6.17
2022-09-11T16:41:17.473Z,4.40
2022-09-11T16:43:46.540Z,4.53
2022-09-11T16:46:16.658Z,4.00
2022-09-11T16:48:43.812Z,5.40
2022-09-11T16:51:11.887Z,4.40
2022-09-11T16:53:39.062Z,3.87
2022-09-11T16:56:07.513Z,4.67
2022-09-11T16:58:34.461Z,5.10
2022-09-11T17:01:04.431Z,8.07
2022-09-11T17:03:33.318Z,4.10
2022-09-11T17:06:00.054Z,4.73
2022-09-11T17:08:27.241Z,5.37
2022-09-11T17:10:56.262Z,5.13
2022-09-11T17:13:22.948Z,4.73
2022-09-11T17:15:50.162Z,5.23
2022-09-11T17:18:17.580Z,4.77
2022-09-11T17:20:45.685Z,4.30
2022-09-11T17:23:12.452Z,5.63
2022-09-11T17:25:40.808Z,5.60
2022-09-11T17:28:08.304Z,6.33
2022-09-11T17:30:37.692Z,4.73
2022-09-11T17:33:04.510Z,6.90
2022-09-11T17:35:31.309Z,4.70
2022-09-11T17:37:59.398Z,6.03
2022-09-11T17:40:26.101Z,5.47
2022-09-11T17:42:52.823Z,6.20
2022-09-11T17:45:19.528Z,5.00
2022-09-11T17:47:46.223Z,5.57
2022-09-11T17:50:12.854Z,6.00
2022-09-11T17:52:39.597Z,4.73
2022-09-11T17:55:08.226Z,5.20
2022-09-11T17:57:35.163Z,4.50
2022-09-11T18:00:02.258Z,5.13
2022-09-11T18:02:29.008Z,6.10
2022-09-11T18:04:55.742Z,5.53
2022-09-11T18:07:22.390Z,7.00
2022-09-11T18:09:50.998Z,4.37
2022-09-11T18:12:22.242Z,5.50
2022-09-11T18:14:48.977Z,4.20
2022-09-11T18:17:15.707Z,4.90
2022-09-11T18:19:42.356Z,5.90
2022-09-11T18:22:09.886Z,6.80
2022-09-11T18:24:36.712Z,5.23
2022-09-11T18:27:03.476Z,7.37
2022-09-11T18:29:31.616Z,6.93
2022-09-11T18:32:00.241Z,10.67
2022-09-11T18:34:28.467Z,9.17
2022-09-11T18:36:55.311Z,8.17
2022-09-11T18:39:22.286Z,6.30
2022-09-11T18:41:50.237Z,7.80
2022-09-11T18:44:20.072Z,10.07
2022-09-11T18:46:51.801Z,9.33
2022-09-11T18:49:18.547Z,9.83
2022-09-11T18:51:45.360Z,9.53
2022-09-11T18:54:13.499Z,10.70
2022-09-11T18:56:40.280Z,10.83
2022-09-11T18:59:07.067Z,14.53
2022-09-11T19:01:33.864Z,14.93
2022-09-11T19:04:06.441Z,15.87
2022-09-11T19:06:33.183Z,13.37
2022-09-11T19:09:00.223Z,17.40
2022-09-11T19:11:28.497Z,20.50
2022-09-11T19:13:56.228Z,18.33
2022-09-11T19:16:23.109Z,11.90
2022-09-11T19:18:50.000Z,10.73
2022-09-11T19:21:20.121Z,9.57
2022-09-11T19:23:48.572Z,13.67
2022-09-11T19:26:16.931Z,12.80
2022-09-11T19:28:44.688Z,11.40
2022-09-11T19:31:13.430Z,11.67
2022-09-11T19:33:41.084Z,10.10
2022-09-11T19:36:10.772Z,11.80
2022-09-11T19:38:39.872Z,11.70
2022-09-11T19:41:07.644Z,11.83
2022-09-11T19:43:35.580Z,12.87
2022-09-11T19:46:02.813Z,9.63
2022-09-11T19:48:29.946Z,12.43
2022-09-11T19:50:56.741Z,10.97
2022-09-11T19:53:23.626Z,8.20
2022-09-11T19:55:54.855Z,12.23
2022-09-11T19:58:23.990Z,10.00
2022-09-11T20:00:51.163Z,9.90
2022-09-11T20:03:18.619Z,9.23
2022-09-11T20:05:45.893Z,10.30
2022-09-11T20:08:16.190Z,8.53
2022-09-11T20:10:45.546Z,7.03
2022-09-11T20:13:13.594Z,8.33
2022-09-11T20:15:41.063Z,8.77
2022-09-11T20:18:07.987Z,9.63
2022-09-11T20:20:36.040Z,7.50
2022-09-11T20:23:02.899Z,6.37
2022-09-11T20:25:29.905Z,8.67
2022-09-11T20:28:00.425Z,6.77
2022-09-11T20:30:30.766Z,7.73
2022-09-11T20:32:57.499Z,6.33
2022-09-11T20:35:24.210Z,9.00
2022-09-11T20:37:51.285Z,7.27
2022-09-11T20:40:18.256Z,12.90
2022-09-11T20:42:45.226Z,6.80
2022-09-11T20:45:12.241Z,9.07
2022-09-11T20:47:40.419Z,8.70
2022-09-11T20:50:08.877Z,10.60
2022-09-11T20:52:39.327Z,10.50
2022-09-11T20:55:07.480Z,8.50
2022-09-11T20:57:34.130Z,7.80
2022-09-11T21:00:01.116Z,9.37
2022-09-11T21:02:27.867Z,11.90
2022-09-11T21:04:55.932Z,6.73
2022-09-11T21:07:22.613Z,7.20
2022-09-11T21:09:49.366Z,6.07
2022-09-11T21:12:16.064Z,5.77
2022-09-11T21:14:42.799Z,5.27
2022-09-11T21:17:09.422Z,6.70
2022-09-11T21:19:36.158Z,5.37
2022-09-11T21:22:04.394Z,6.30
2022-09-11T21:24:31.102Z,4.90
2022-09-11T21:26:57.790Z,7.57
2022-09-11T21:29:24.461Z,5.73
2022-09-11T21:31:51.197Z,7.90
2022-09-11T21:34:17.908Z,6.17
2022-09-11T21:36:44.647Z,6.30
2022-09-11T21:39:13.047Z,5.10
2022-09-11T21:41:39.729Z,4.97
2022-09-11T21:44:06.436Z,4.77
2022-09-11T21:46:33.408Z,4.63
2022-09-11T21:49:00.236Z,5.13
2022-09-11T21:51:26.991Z,5.50
2022-09-11T21:53:56.392Z,8.43
2022-09-11T21:56:26.054Z,4.93
2022-09-11T21:58:53.612Z,5.27
2022-09-11T22:01:21.864Z,6.43
2022-09-11T22:03:48.645Z,4.87
2022-09-11T22:06:15.676Z,5.13
2022-09-11T22:08:43.461Z,6.23
2022-09-11T22:11:10.878Z,6.17
2022-09-11T22:13:39.182Z,4.47
2022-09-11T22:16:07.954Z,4.53
2022-09-11T22:18:35.143Z,6.90
2022-09-11T22:21:01.970Z,4.43
2022-09-11T22:23:30.038Z,4.40
2022-09-11T22:26:01.962Z,4.97
2022-09-11T22:28:28.882Z,5.70
2022-09-11T22:30:57.033Z,5.90
2022-09-11T22:33:24.130Z,4.30
2022-09-11T22:35:50.921Z,5.10
2022-09-11T22:38:17.998Z,4.93
2022-09-11T22:40:44.680Z,5.30
2022-09-11T22:43:11.350Z,5.93
2022-09-11T22:45:38.110Z,6.20
2022-09-11T22:48:06.203Z,5.23
2022-09-11T22:50:33.631Z,6.47
2022-09-11T22:53:00.395Z,3.93
2022-09-11T22:55:27.185Z,6.77
2022-09-11T22:57:53.914Z,5.07
2022-09-11T23:00:20.772Z,5.33
2022-09-11T23:02:47.432Z,5.20
2022-09-11T23:05:15.596Z,4.63
2022-09-11T23:07:42.251Z,5.40
2022-09-11T23:10:09.247Z,7.80
2022-09-11T23:12:35.900Z,5.00
2022-09-11T23:15:02.775Z,5.20
2022-09-11T23:17:29.474Z,4.53
2022-09-11T23:19:56.234Z,6.50
2022-09-11T23:22:26.320Z,4.13
2022-09-11T23:24:53.086Z,5.10
2022-09-11T23:27:19.969Z,4.53
2022-09-11T23:29:46.731Z,5.93
2022-09-11T23:32:13.500Z,4.60
2022-09-11T23:34:40.154Z,5.23
2022-09-11T23:37:06.930Z,4.80
2022-09-11T23:39:35.177Z,5.00
2022-09-11T23:42:01.970Z,7.80
2022-09-11T23:44:28.610Z,5.20
2022-09-11T23:46:55.360Z,5.83
2022-09-11T23:49:22.104Z,7.93
2022-09-11T23:51:48.779Z,4.17
2022-09-11T23:54:15.641Z,5.63
2022-09-11T23:56:43.708Z,4.17
2022-09-11T23:59:10.639Z,4.20
